Terminal Aerodrome Forecast
Issued by NWS Cleveland, OH

Home | Current Version | Previous Version | Text Only | Print | Product List | Glossary On
Versions: 1 2 3 4 5 6 7 8 9 10 11 12 13 14 15 16 17 18 19 20 21 22 23
347
FTUS41 KCLE 190536
TAFTOL
TAF
KTOL 190536Z 1906/2006 23006KT 6SM BR OVC005
     FM190900 23004KT P6SM OVC009
     FM191600 22005KT P6SM BKN250
     FM200100 VRB03KT P6SM OVC100=

USA.gov is the U.S. government's official web portal to all federal, state and local government web resources and services.